Time;durP1;ratioP1;P1;durP2;ratioP2;P2;SDS_P1;SDS_P2;PMS_P1;PMS_P2;Temp;Humidity;BMP_temperature;BMP_pressure;BME280_temperature;BME280_humidity;BME280_pressure;Samples;Min_cycle;Max_cycle;Signal;HPM_P1;HPM_P2
2021/04/28 00:04:38;;;;;;;4.18;2.72;;;7.90;99.90;;;;;;12375736;28;20058;-78
2021/04/28 00:10:42;;;;;;;4.75;2.42;;;7.70;99.90;;;;;;12373092;28;20136;-79
2021/04/28 00:16:44;;;;;;;6.40;2.50;;;7.50;99.90;;;;;;12378322;28;20129;-78
2021/04/28 00:22:46;;;;;;;5.45;2.75;;;7.30;99.90;;;;;;12382105;28;20041;-78
2021/04/28 00:28:47;;;;;;;4.25;2.30;;;7.30;99.90;;;;;;12380808;28;20092;-78
2021/04/28 00:34:48;;;;;;;4.50;2.78;;;7.00;99.90;;;;;;12382019;28;20343;-78
2021/04/28 00:40:50;;;;;;;5.30;2.58;;;6.80;99.90;;;;;;12375686;28;20480;-78
2021/04/28 00:46:51;;;;;;;7.53;2.63;;;6.70;99.90;;;;;;12372578;28;20573;-78
2021/04/28 00:52:54;;;;;;;4.57;2.40;;;6.80;99.90;;;;;;12379408;28;20495;-79
2021/04/28 00:58:55;;;;;;;5.55;2.47;;;6.70;99.90;;;;;;12378099;28;20489;-78
2021/04/28 01:04:57;;;;;;;4.93;2.45;;;6.70;99.90;;;;;;12394414;28;20077;-78
2021/04/28 01:10:58;;;;;;;5.72;2.47;;;6.40;99.90;;;;;;12388479;28;20792;-78
2021/04/28 01:17:01;;;;;;;4.75;2.38;;;6.30;99.90;;;;;;12382402;28;20108;-79
2021/04/28 01:23:05;;;;;;;4.38;2.40;;;6.00;99.90;;;;;;12381293;28;20057;-78
2021/04/28 01:29:07;;;;;;;4.65;2.45;;;6.20;99.90;;;;;;12363732;28;20116;-78
2021/04/28 01:35:10;;;;;;;4.28;2.38;;;6.30;99.90;;;;;;12383613;28;20045;-78
2021/04/28 01:41:11;;;;;;;4.90;2.42;;;6.00;99.90;;;;;;12369592;28;20038;-78
2021/04/28 01:47:14;;;;;;;7.07;2.40;;;5.90;99.90;;;;;;12381323;28;20081;-78
2021/04/28 01:53:18;;;;;;;5.00;2.70;;;5.80;99.90;;;;;;12368462;28;22263;-79
2021/04/28 01:59:21;;;;;;;5.03;2.42;;;5.70;99.90;;;;;;12379656;28;20077;-78
2021/04/28 02:05:23;;;;;;;5.80;2.47;;;5.30;99.90;;;;;;12391216;28;20050;-78
2021/04/28 02:11:24;;;;;;;10.18;2.70;;;5.30;99.90;;;;;;12374015;28;20107;-78
2021/04/28 02:17:26;;;;;;;9.63;2.92;;;5.40;99.90;;;;;;12373968;28;20553;-78
2021/04/28 02:23:28;;;;;;;5.20;2.28;;;5.30;99.90;;;;;;12376029;28;20549;-79
2021/04/28 02:29:29;;;;;;;5.80;2.28;;;5.20;99.90;;;;;;12375298;28;20437;-78
2021/04/28 02:35:31;;;;;;;7.18;2.55;;;5.20;99.90;;;;;;12375675;28;20046;-78
2021/04/28 02:41:33;;;;;;;3.97;2.10;;;5.30;99.90;;;;;;12376330;28;20043;-78
2021/04/28 02:47:38;;;;;;;3.83;2.38;;;5.70;99.90;;;;;;12372403;28;20629;-78
2021/04/28 02:53:43;;;;;;;5.47;2.30;;;5.50;99.90;;;;;;12386720;28;20042;-78
2021/04/28 02:59:46;;;;;;;10.25;3.75;;;5.20;99.90;;;;;;12389119;28;20053;-78
2021/04/28 03:05:52;;;;;;;7.88;2.70;;;4.90;99.90;;;;;;12386115;28;20054;-78
2021/04/28 03:11:54;;;;;;;4.35;2.30;;;5.00;99.90;;;;;;12386662;28;20049;-78
2021/04/28 03:17:58;;;;;;;4.88;2.70;;;4.80;99.90;;;;;;12387967;28;20600;-78
2021/04/28 03:24:00;;;;;;;4.70;2.22;;;5.20;99.90;;;;;;12405421;28;20141;-78
2021/04/28 03:30:03;;;;;;;6.55;2.50;;;4.90;99.90;;;;;;12429023;28;20034;-78
2021/04/28 03:36:05;;;;;;;4.63;2.60;;;4.60;99.90;;;;;;12438995;28;20081;-78
2021/04/28 03:42:06;;;;;;;7.80;2.97;;;4.60;99.90;;;;;;12427658;28;20046;-78
2021/04/28 03:48:08;;;;;;;6.15;2.72;;;4.80;99.90;;;;;;12397629;28;20514;-78
2021/04/28 03:54:10;;;;;;;7.38;2.60;;;4.60;99.90;;;;;;12382574;28;20106;-78
2021/04/28 04:00:12;;;;;;;6.60;2.63;;;4.50;99.90;;;;;;12381257;28;20051;-78
2021/04/28 04:06:13;;;;;;;4.40;2.72;;;4.50;99.90;;;;;;12383847;28;20046;-78
2021/04/28 04:12:15;;;;;;;4.18;2.40;;;4.10;99.90;;;;;;12374908;28;20051;-78
2021/04/28 04:18:16;;;;;;;5.43;2.97;;;4.00;99.90;;;;;;12400906;28;20403;-78
2021/04/28 04:24:17;;;;;;;6.40;2.80;;;3.80;99.90;;;;;;12369847;28;20054;-78
2021/04/28 04:30:19;;;;;;;6.35;2.58;;;4.10;99.90;;;;;;12371923;28;20074;-78
2021/04/28 04:36:20;;;;;;;5.57;2.60;;;4.10;99.90;;;;;;12392723;28;20048;-78
2021/04/28 04:42:22;;;;;;;6.18;2.90;;;4.20;99.90;;;;;;12390148;28;20095;-78
2021/04/28 04:48:23;;;;;;;7.32;2.75;;;4.50;99.90;;;;;;12369934;28;20632;-78
2021/04/28 04:54:25;;;;;;;6.07;2.70;;;4.70;99.90;;;;;;12372748;28;20334;-78
2021/04/28 05:00:26;;;;;;;5.43;2.50;;;5.40;99.90;;;;;;12373541;28;20069;-78
2021/04/28 05:06:31;;;;;;;7.57;2.70;;;6.10;99.90;;;;;;12370895;28;20046;-79
2021/04/28 05:12:32;;;;;;;5.78;2.38;;;7.10;99.90;;;;;;12379190;28;20137;-79
2021/04/28 05:18:34;;;;;;;6.03;2.55;;;7.20;99.90;;;;;;12374927;28;20050;-79
2021/04/28 05:24:35;;;;;;;7.55;2.80;;;8.60;99.90;;;;;;12369851;28;20104;-79
2021/04/28 05:30:37;;;;;;;7.10;3.15;;;9.10;99.90;;;;;;12372832;28;20503;-78
2021/04/28 05:36:38;;;;;;;5.35;3.10;;;9.10;99.90;;;;;;12377972;28;20353;-79
2021/04/28 05:42:40;;;;;;;5.93;2.90;;;10.10;99.90;;;;;;12363784;28;20100;-79
2021/04/28 05:48:41;;;;;;;7.03;2.97;;;11.60;99.90;;;;;;12380912;28;20050;-79
2021/04/28 05:54:43;;;;;;;5.35;2.85;;;12.60;99.90;;;;;;12383461;28;20076;-79
2021/04/28 06:01:03;;;;;;;8.15;3.17;;;13.30;99.90;;;;;;12374767;28;20038;-79
2021/04/28 06:07:05;;;;;;;7.53;2.80;;;11.80;99.90;;;;;;12393792;28;20080;-79
2021/04/28 06:13:06;;;;;;;8.23;3.70;;;10.90;99.90;;;;;;12373894;28;20105;-79
2021/04/28 06:19:10;;;;;;;9.35;2.95;;;10.10;99.90;;;;;;12371089;28;20395;-79
2021/04/28 06:25:14;;;;;;;6.45;2.90;;;9.60;99.90;;;;;;12373387;28;20081;-79
2021/04/28 06:31:15;;;;;;;5.40;2.50;;;9.80;99.90;;;;;;12398070;28;20100;-79
2021/04/28 06:37:16;;;;;;;4.95;3.17;;;9.90;99.90;;;;;;12387101;28;20058;-79
2021/04/28 06:43:18;;;;;;;6.95;3.25;;;10.10;99.90;;;;;;12386677;28;20046;-79
2021/04/28 06:49:36;;;;;;;6.13;3.20;;;10.20;99.90;;;;;;12389050;28;20050;-79
2021/04/28 06:55:38;;;;;;;6.88;3.22;;;9.60;99.90;;;;;;12384044;28;20565;-79
2021/04/28 07:01:39;;;;;;;8.38;3.78;;;9.60;99.90;;;;;;12386700;28;20112;-79
2021/04/28 07:07:41;;;;;;;6.55;3.10;;;9.60;99.90;;;;;;12374372;28;20057;-79
2021/04/28 07:13:42;;;;;;;5.28;2.95;;;10.00;99.90;;;;;;12396756;28;20820;-79
2021/04/28 07:19:43;;;;;;;5.20;3.17;;;9.90;99.90;;;;;;12376938;28;20058;-79
2021/04/28 07:25:45;;;;;;;5.30;3.00;;;10.00;99.90;;;;;;12392165;28;20054;-79
2021/04/28 07:31:46;;;;;;;7.78;3.50;;;10.20;99.90;;;;;;12379202;28;20049;-79
2021/04/28 07:37:48;;;;;;;7.72;3.70;;;10.40;99.90;;;;;;12381011;28;20415;-79
2021/04/28 07:43:49;;;;;;;6.72;3.60;;;10.50;99.90;;;;;;12376672;28;20042;-79
2021/04/28 07:49:51;;;;;;;7.40;3.55;;;10.60;99.90;;;;;;12386052;28;20058;-79
2021/04/28 07:55:54;;;;;;;6.80;4.18;;;11.00;99.90;;;;;;12380774;28;20079;-79
2021/04/28 08:01:55;;;;;;;7.13;3.75;;;11.20;99.90;;;;;;12380553;28;20125;-79
2021/04/28 08:07:58;;;;;;;10.25;4.90;;;11.40;99.90;;;;;;12401603;28;20046;-79
2021/04/28 08:13:59;;;;;;;6.95;4.32;;;11.50;99.90;;;;;;12384546;28;20042;-79
2021/04/28 08:20:01;;;;;;;8.05;5.28;;;12.00;99.90;;;;;;12363548;28;576442;-79
2021/04/28 08:26:04;;;;;;;7.75;3.90;;;11.90;99.90;;;;;;12384276;28;20462;-79
2021/04/28 08:32:05;;;;;;;6.57;4.20;;;12.00;99.90;;;;;;12386649;28;20117;-80
2021/04/28 08:38:09;;;;;;;7.25;4.22;;;12.60;99.90;;;;;;12379118;28;20054;-79
2021/04/28 08:44:10;;;;;;;6.70;4.53;;;12.70;99.90;;;;;;12389045;28;20178;-80
2021/04/28 08:50:12;;;;;;;9.40;4.88;;;13.00;99.90;;;;;;12380692;28;20053;-79
2021/04/28 08:56:13;;;;;;;9.90;4.70;;;13.00;99.90;;;;;;12395619;28;20167;-78
2021/04/28 09:02:24;;;;;;;9.25;5.07;;;13.20;99.90;;;;;;12393282;28;20054;-80
2021/04/28 09:08:26;;;;;;;6.85;4.63;;;13.70;99.90;;;;;;12396010;28;20057;-80
2021/04/28 09:14:32;;;;;;;7.73;5.50;;;14.00;99.90;;;;;;12377326;28;20087;-80
2021/04/28 09:20:42;;;;;;;7.65;5.05;;;14.50;99.90;;;;;;12375819;28;20043;-80
2021/04/28 09:26:43;;;;;;;10.55;5.57;;;14.40;99.90;;;;;;12388075;28;20080;-80
2021/04/28 09:32:46;;;;;;;10.40;6.13;;;14.60;99.90;;;;;;12393447;28;21303;-80
2021/04/28 09:38:53;;;;;;;9.65;5.47;;;14.80;99.90;;;;;;12376737;28;20110;-80
2021/04/28 09:44:55;;;;;;;10.00;6.13;;;14.90;99.90;;;;;;12371680;28;20046;-80
2021/04/28 09:51:08;;;;;;;11.30;6.80;;;15.00;99.90;;;;;;12376357;28;20699;-80
2021/04/28 09:57:09;;;;;;;10.98;6.15;;;15.20;99.90;;;;;;12378847;28;20042;-80
2021/04/28 10:03:10;;;;;;;11.90;6.13;;;15.50;99.90;;;;;;12382239;28;20132;-81
2021/04/28 10:09:31;;;;;;;8.10;5.97;;;15.90;99.90;;;;;;12376011;28;20042;-80
2021/04/28 10:15:34;;;;;;;10.35;6.70;;;16.20;99.90;;;;;;12387321;28;20039;-81
2021/04/28 10:21:38;;;;;;;10.77;6.40;;;16.20;99.90;;;;;;12376160;28;20348;-81
2021/04/28 10:27:40;;;;;;;9.65;6.40;;;16.20;99.70;;;;;;12393545;28;20576;-81
2021/04/28 10:33:43;;;;;;;11.50;6.43;;;16.70;99.70;;;;;;12378428;28;20072;-81
2021/04/28 10:40:15;;;;;;;12.93;7.25;;;16.70;99.00;;;;;;12380557;28;20062;-81
2021/04/28 10:46:18;;;;;;;9.50;6.90;;;17.20;99.10;;;;;;12377767;28;20104;-81
2021/04/28 10:52:42;;;;;;;11.60;6.90;;;17.00;99.90;;;;;;12391211;28;20407;-81
2021/04/28 10:58:45;;;;;;;13.93;7.43;;;17.30;98.10;;;;;;12388596;28;20045;-81
2021/04/28 11:04:47;;;;;;;11.02;7.57;;;17.80;99.40;;;;;;12390945;28;20050;-81
2021/04/28 11:10:49;;;;;;;9.50;6.93;;;17.90;98.30;;;;;;12398195;28;20340;-81
2021/04/28 11:16:59;;;;;;;11.05;7.60;;;18.10;95.30;;;;;;12388829;28;20121;-81
2021/04/28 11:23:21;;;;;;;14.32;7.78;;;18.40;97.10;;;;;;12399325;28;20399;-81
2021/04/28 11:29:22;;;;;;;11.20;7.18;;;18.60;97.30;;;;;;12388450;28;20051;-81
2021/04/28 11:35:23;;;;;;;13.63;7.88;;;19.00;96.30;;;;;;12389614;28;20065;-82
2021/04/28 11:41:27;;;;;;;14.18;7.38;;;18.80;98.40;;;;;;12420768;28;20081;-81
2021/04/28 11:47:28;;;;;;;11.93;7.53;;;18.90;94.90;;;;;;12405760;28;20477;-81
2021/04/28 11:53:30;;;;;;;10.73;7.55;;;19.00;93.80;;;;;;12379051;28;20046;-81
2021/04/28 11:59:37;;;;;;;15.07;8.93;;;19.20;96.40;;;;;;12388051;28;20571;-81
2021/04/28 12:05:38;;;;;;;13.77;8.38;;;19.50;95.20;;;;;;12377579;28;20099;-81
2021/04/28 12:11:41;;;;;;;15.10;8.80;;;19.50;95.40;;;;;;12372256;28;20616;-81
2021/04/28 12:17:47;;;;;;;13.13;8.55;;;20.20;95.40;;;;;;12375234;28;20058;-81
2021/04/28 12:23:59;;;;;;;11.77;8.25;;;20.40;96.10;;;;;;12390474;28;20058;-81
2021/04/28 12:30:06;;;;;;;12.27;7.85;;;20.30;92.50;;;;;;12377676;28;20490;-82
2021/04/28 12:36:08;;;;;;;15.63;8.68;;;20.20;94.30;;;;;;12395347;28;20062;-81
2021/04/28 12:42:09;;;;;;;10.88;7.63;;;20.70;93.90;;;;;;12380487;28;20144;-82
2021/04/28 12:48:16;;;;;;;13.73;8.75;;;19.60;91.10;;;;;;12380667;28;20461;-81
2021/04/28 12:54:29;;;;;;;24.50;10.00;;;19.90;90.40;;;;;;12393229;28;20173;-83
2021/04/28 13:00:35;;;;;;;14.70;9.05;;;20.60;92.30;;;;;;12384588;28;20095;-81
2021/04/28 13:06:36;;;;;;;25.73;8.48;;;20.20;88.00;;;;;;12379016;28;20058;-81
2021/04/28 13:12:53;;;;;;;15.05;9.20;;;20.40;91.20;;;;;;12381226;28;20096;-82
2021/04/28 13:18:57;;;;;;;296.17;20.52;;;20.10;90.10;;;;;;12381819;28;20054;-81
2021/04/28 13:24:58;;;;;;;12.43;8.20;;;20.50;90.20;;;;;;12392603;28;20060;-82
2021/04/28 13:31:28;;;;;;;20.25;9.18;;;20.10;89.00;;;;;;12367693;28;20141;-81
2021/04/28 13:37:30;;;;;;;20.65;9.38;;;20.30;88.70;;;;;;12379000;28;20552;-81
2021/04/28 13:43:31;;;;;;;12.23;9.13;;;20.30;91.80;;;;;;12370786;28;20139;-81
2021/04/28 13:49:32;;;;;;;12.77;8.60;;;20.50;92.00;;;;;;12377024;28;20066;-81
2021/04/28 13:55:34;;;;;;;12.38;8.57;;;20.60;89.50;;;;;;12370630;28;20450;-81
2021/04/28 14:01:35;;;;;;;15.55;7.32;;;20.70;90.90;;;;;;12374365;28;20053;-81
2021/04/28 14:07:37;;;;;;;11.38;8.70;;;21.30;91.20;;;;;;12373396;28;20057;-81
2021/04/28 14:13:40;;;;;;;12.57;7.50;;;21.10;82.40;;;;;;12378687;28;20149;-82
2021/04/28 14:19:42;;;;;;;13.10;8.73;;;20.80;84.10;;;;;;12382935;28;20200;-81
2021/04/28 14:25:43;;;;;;;23.27;8.35;;;20.80;89.00;;;;;;12383899;28;20431;-81
2021/04/28 14:31:45;;;;;;;13.35;8.40;;;21.20;86.40;;;;;;12371346;28;20077;-81
2021/04/28 14:37:46;;;;;;;13.52;8.35;;;21.70;85.70;;;;;;12375047;28;20141;-81
2021/04/28 14:43:48;;;;;;;29.60;9.15;;;21.60;90.80;;;;;;12370548;28;20578;-81
2021/04/28 14:49:49;;;;;;;26.70;8.88;;;22.00;90.00;;;;;;12386567;28;20081;-81
2021/04/28 14:55:50;;;;;;;10.23;5.75;;;21.90;89.40;;;;;;12386374;28;20054;-81
2021/04/28 15:01:52;;;;;;;10.10;6.10;;;21.90;87.60;;;;;;12384990;28;20189;-81
2021/04/28 15:07:53;;;;;;;17.60;8.60;;;21.60;85.30;;;;;;12387478;28;20049;-81
2021/04/28 15:13:54;;;;;;;16.05;9.02;;;21.30;83.30;;;;;;12387227;28;20077;-81
2021/04/28 15:19:56;;;;;;;13.10;7.28;;;21.80;90.00;;;;;;12382001;28;20085;-81
2021/04/28 15:25:57;;;;;;;16.90;3.80;;;21.80;90.40;;;;;;12390380;28;20201;-81
2021/04/28 15:32:02;;;;;;;6.03;3.97;;;21.10;88.80;;;;;;12385441;28;20092;-81
2021/04/28 15:38:04;;;;;;;16.48;4.65;;;20.80;81.20;;;;;;12387986;28;20055;-81
2021/04/28 15:56:26;;;;;;;8.10;4.55;;;20.40;85.50;;;;;;12415075;28;20499;-81
2021/04/28 16:02:27;;;;;;;10.30;5.47;;;21.00;86.80;;;;;;12347544;28;20097;-81
2021/04/28 16:08:29;;;;;;;8.57;5.38;;;21.00;85.50;;;;;;12266370;28;20185;-81
2021/04/28 16:14:31;;;;;;;12.48;6.55;;;21.30;83.60;;;;;;12261471;28;20047;-81
2021/04/28 16:20:32;;;;;;;11.18;5.70;;;21.80;87.70;;;;;;12261647;28;20690;-81
2021/04/28 16:26:33;;;;;;;7.78;5.07;;;21.80;85.30;;;;;;12274319;28;20087;-81
2021/04/28 16:32:35;;;;;;;10.23;5.10;;;22.10;83.20;;;;;;12264206;28;20040;-81
2021/04/28 16:38:37;;;;;;;8.95;4.95;;;22.60;80.80;;;;;;12263316;28;20043;-81
2021/04/28 16:44:38;;;;;;;9.77;5.22;;;22.90;85.00;;;;;;12243462;28;20141;-81
2021/04/28 16:50:41;;;;;;;9.10;5.63;;;22.60;84.20;;;;;;12251669;28;20059;-81
2021/04/28 16:56:43;;;;;;;10.98;5.15;;;21.70;77.00;;;;;;12288950;28;21079;-81
2021/04/28 17:02:44;;;;;;;8.70;4.97;;;20.80;84.90;;;;;;12290664;28;20662;-81
2021/04/28 17:08:45;;;;;;;7.47;4.72;;;20.60;86.90;;;;;;12265560;28;20051;-81
2021/04/28 17:14:47;;;;;;;8.05;5.00;;;20.30;87.30;;;;;;12264510;28;20056;-81
2021/04/28 17:20:48;;;;;;;7.38;5.15;;;19.80;85.70;;;;;;12261985;28;20598;-80
2021/04/28 17:26:50;;;;;;;12.90;5.28;;;19.30;89.30;;;;;;12264695;28;20146;-81
2021/04/28 17:32:51;;;;;;;16.80;7.88;;;19.10;91.70;;;;;;12263890;28;20221;-79
2021/04/28 17:38:54;;;;;;;13.60;8.83;;;18.80;93.60;;;;;;12266895;28;20134;-81
2021/04/28 17:44:55;;;;;;;14.02;7.82;;;18.30;91.10;;;;;;12271374;28;20115;-81
2021/04/28 17:50:58;;;;;;;10.77;6.38;;;18.00;94.20;;;;;;12266663;28;20093;-80
2021/04/28 17:56:59;;;;;;;11.48;6.05;;;17.40;93.50;;;;;;12261797;28;20043;-80
2021/04/28 18:03:01;;;;;;;13.80;6.95;;;17.10;94.60;;;;;;12263850;28;20047;-81
2021/04/28 18:09:03;;;;;;;12.30;6.68;;;16.80;92.10;;;;;;12264313;28;20070;-80
2021/04/28 18:15:05;;;;;;;16.48;6.38;;;16.70;92.40;;;;;;12257192;28;20047;-81
2021/04/28 18:21:06;;;;;;;11.52;5.93;;;16.30;90.60;;;;;;12261486;28;20043;-81
2021/04/28 18:27:08;;;;;;;10.73;6.88;;;15.70;92.80;;;;;;12266948;28;20047;-80
2021/04/28 18:33:13;;;;;;;15.15;6.60;;;15.30;96.00;;;;;;12258029;28;20411;-80
2021/04/28 18:39:17;;;;;;;12.13;6.28;;;15.40;99.20;;;;;;12264983;28;20145;-80
2021/04/28 18:45:18;;;;;;;8.13;6.37;;;15.30;98.30;;;;;;12261506;28;20051;-81
2021/04/28 18:51:20;;;;;;;12.68;6.80;;;15.20;99.90;;;;;;12261917;28;20064;-80
2021/04/28 18:57:21;;;;;;;13.13;6.72;;;15.20;99.90;;;;;;12258861;28;20693;-80
2021/04/28 19:03:23;;;;;;;9.98;6.45;;;14.40;99.90;;;;;;12258684;28;20750;-80
2021/04/28 19:09:24;;;;;;;11.50;6.40;;;14.10;99.90;;;;;;12254430;28;20055;-80
2021/04/28 19:15:26;;;;;;;10.40;6.60;;;14.20;99.90;;;;;;12265883;28;20075;-80
2021/04/28 19:21:27;;;;;;;8.30;6.05;;;14.10;99.90;;;;;;12268097;28;20558;-80
2021/04/28 19:27:29;;;;;;;11.38;6.13;;;14.10;99.90;;;;;;12256781;28;20454;-80
2021/04/28 19:33:30;;;;;;;9.52;6.50;;;14.10;99.90;;;;;;12264121;28;20105;-80
2021/04/28 19:39:31;;;;;;;11.48;6.25;;;13.90;99.90;;;;;;12261552;28;20198;-80
2021/04/28 19:45:33;;;;;;;11.30;6.47;;;13.80;99.90;;;;;;12254899;28;20067;-80
2021/04/28 19:51:34;;;;;;;11.20;6.95;;;13.90;99.90;;;;;;12252026;28;20063;-80
2021/04/28 19:57:35;;;;;;;9.73;6.72;;;13.90;99.90;;;;;;12255909;28;20093;-80
2021/04/28 20:03:37;;;;;;;12.48;7.30;;;13.90;99.90;;;;;;12259081;28;20058;-80
2021/04/28 20:09:38;;;;;;;10.55;6.60;;;13.90;99.90;;;;;;12258181;28;20078;-80
2021/04/28 20:15:40;;;;;;;9.30;6.05;;;13.70;99.90;;;;;;12252588;28;20047;-80
2021/04/28 20:21:41;;;;;;;10.77;6.70;;;13.70;99.90;;;;;;12256947;28;20404;-80
2021/04/28 20:27:43;;;;;;;9.40;6.00;;;13.60;99.90;;;;;;12267908;28;20086;-80
2021/04/28 20:33:44;;;;;;;11.45;6.57;;;13.60;99.90;;;;;;12252517;28;20190;-80
2021/04/28 20:39:45;;;;;;;9.02;6.28;;;13.50;99.90;;;;;;12267243;28;20047;-79
2021/04/28 20:45:47;;;;;;;10.07;7.38;;;13.50;99.90;;;;;;12264332;28;20126;-80
2021/04/28 20:51:49;;;;;;;11.27;7.22;;;13.40;99.90;;;;;;12267088;28;20059;-80
2021/04/28 20:57:50;;;;;;;11.35;6.80;;;13.30;99.90;;;;;;12264810;28;20048;-80
2021/04/28 21:03:52;;;;;;;9.20;7.22;;;13.10;99.90;;;;;;12264220;28;20185;-80
2021/04/28 21:09:55;;;;;;;8.85;6.78;;;13.00;99.90;;;;;;12268786;28;20211;-80
2021/04/28 21:15:57;;;;;;;10.90;7.50;;;13.00;99.90;;;;;;12262889;28;20200;-80
2021/04/28 21:21:58;;;;;;;8.70;6.90;;;12.90;99.90;;;;;;12268142;28;20054;-80
2021/04/28 21:28:00;;;;;;;10.13;7.28;;;12.90;99.90;;;;;;12269214;28;20056;-80
2021/04/28 21:34:02;;;;;;;11.90;7.50;;;12.80;99.90;;;;;;12308676;28;20035;-80
2021/04/28 21:40:05;;;;;;;10.27;7.50;;;12.80;99.90;;;;;;12304548;28;20054;-79
2021/04/28 21:46:07;;;;;;;11.87;7.67;;;12.90;99.90;;;;;;12263745;28;20063;-80
2021/04/28 21:52:08;;;;;;;8.57;7.40;;;12.90;99.90;;;;;;12268600;28;20079;-79
2021/04/28 21:58:09;;;;;;;12.75;7.43;;;13.10;99.90;;;;;;12264660;28;20051;-80
2021/04/28 22:04:11;;;;;;;10.85;7.93;;;12.80;99.90;;;;;;12257190;28;20040;-80
2021/04/28 22:10:12;;;;;;;10.45;7.97;;;12.70;99.90;;;;;;12256435;28;20104;-80
2021/04/28 22:16:15;;;;;;;10.23;7.72;;;12.70;99.90;;;;;;12256648;28;20203;-80
2021/04/28 22:22:16;;;;;;;12.18;8.32;;;12.50;99.90;;;;;;12255958;28;20039;-80
2021/04/28 22:28:18;;;;;;;11.90;8.57;;;12.60;99.90;;;;;;12257647;28;20501;-79
2021/04/28 22:34:19;;;;;;;11.07;8.63;;;12.50;99.90;;;;;;12249528;28;20104;-80
2021/04/28 22:40:20;;;;;;;11.50;8.50;;;12.60;99.90;;;;;;12255187;28;20561;-80
2021/04/28 22:46:21;;;;;;;12.43;7.70;;;12.30;99.90;;;;;;12261000;28;20143;-79
2021/04/28 22:52:23;;;;;;;10.23;7.95;;;12.20;99.90;;;;;;12260422;28;20055;-79
2021/04/28 22:58:24;;;;;;;10.52;8.02;;;12.10;99.90;;;;;;12264659;28;20509;-80
2021/04/28 23:04:26;;;;;;;11.50;8.07;;;12.20;99.90;;;;;;12265854;28;20074;-79
2021/04/28 23:10:28;;;;;;;13.00;8.05;;;12.20;99.90;;;;;;12264682;28;20411;-79
2021/04/28 23:16:30;;;;;;;13.95;8.82;;;12.20;99.90;;;;;;12265223;28;20081;-79
2021/04/28 23:22:31;;;;;;;14.90;8.90;;;11.90;99.90;;;;;;12268664;28;20495;-79
2021/04/28 23:28:33;;;;;;;11.07;8.48;;;11.80;99.90;;;;;;12260469;28;20063;-80
2021/04/28 23:34:35;;;;;;;14.65;9.55;;;11.90;99.90;;;;;;12264094;28;20571;-79
2021/04/28 23:40:36;;;;;;;15.98;8.57;;;11.80;99.90;;;;;;12258061;28;20562;-79
2021/04/28 23:46:37;;;;;;;13.18;8.85;;;11.90;99.90;;;;;;12255353;28;20135;-79
2021/04/28 23:52:39;;;;;;;12.30;8.25;;;11.80;99.90;;;;;;12273720;28;20048;-79
2021/04/28 23:58:40;;;;;;;14.05;8.68;;;11.80;99.90;;;;;;12255420;28;20495;-79
